createdAt,value
2022-11-25T00:01:31.821Z,15.25
2022-11-25T00:03:59.289Z,12.73
2022-11-25T00:06:27.599Z,9.05
2022-11-25T00:08:55.898Z,9.65
2022-11-25T00:11:22.647Z,11.82
2022-11-25T00:13:50.627Z,8.85
2022-11-25T00:16:19.879Z,10.48
2022-11-25T00:18:48.160Z,7.20
2022-11-25T00:21:16.585Z,8.00
2022-11-25T00:23:43.256Z,7.63
2022-11-25T00:26:12.138Z,6.43
2022-11-25T00:28:40.361Z,7.20
2022-11-25T00:31:12.735Z,10.00
2022-11-25T00:33:41.082Z,10.57
2022-11-25T00:36:15.318Z,9.77
2022-11-25T00:38:42.143Z,13.93
2022-11-25T00:41:08.680Z,5.75
2022-11-25T00:43:35.263Z,8.98
2022-11-25T00:46:01.885Z,11.38
2022-11-25T00:48:30.161Z,12.75
2022-11-25T00:50:56.681Z,8.48
2022-11-25T00:53:23.909Z,7.88
2022-11-25T00:55:50.505Z,8.15
2022-11-25T00:58:17.136Z,10.88
2022-11-25T01:00:43.679Z,10.10
2022-11-25T01:03:11.053Z,14.57
2022-11-25T01:05:38.903Z,9.18
2022-11-25T01:08:05.608Z,9.68
2022-11-25T01:10:32.108Z,11.57
2022-11-25T01:12:59.445Z,9.93
2022-11-25T01:15:26.440Z,10.50
2022-11-25T01:17:53.035Z,11.18
2022-11-25T01:20:19.572Z,8.93
2022-11-25T01:22:47.484Z,15.02
2022-11-25T01:25:14.004Z,8.50
2022-11-25T01:27:40.586Z,11.90
2022-11-25T01:30:09.845Z,11.00
2022-11-25T01:32:36.595Z,10.65
2022-11-25T01:35:03.803Z,15.85
2022-11-25T01:37:30.935Z,10.15
2022-11-25T01:39:58.780Z,21.25
2022-11-25T01:42:29.290Z,12.20
2022-11-25T01:45:37.668Z,20.02
2022-11-25T01:48:12.532Z,16.02
2022-11-25T01:50:41.679Z,14.23
2022-11-25T01:53:10.594Z,14.27
2022-11-25T01:55:40.564Z,14.73
2022-11-25T01:58:10.088Z,14.80
2022-11-25T02:00:38.992Z,11.70
2022-11-25T02:03:07.078Z,17.85
2022-11-25T02:05:40.467Z,14.40
2022-11-25T02:08:07.723Z,12.80
2022-11-25T02:10:38.156Z,14.93
2022-11-25T02:13:04.993Z,9.27
2022-11-25T02:15:34.000Z,14.32
2022-11-25T02:20:30.153Z,10.25
2022-11-25T02:23:07.246Z,9.38
2022-11-25T02:25:37.616Z,13.55
2022-11-25T02:28:12.209Z,14.45
2022-11-25T02:30:39.862Z,10.27
2022-11-25T02:33:07.018Z,14.13
2022-11-25T02:35:35.732Z,12.25
2022-11-25T02:38:07.334Z,12.50
2022-11-25T02:40:40.542Z,15.32
2022-11-25T02:43:08.914Z,9.98
2022-11-25T02:45:55.214Z,14.02
2022-11-25T02:48:39.777Z,10.98
2022-11-25T02:51:11.020Z,11.82
2022-11-25T02:53:37.727Z,10.38
2022-11-25T02:56:06.916Z,10.95
2022-11-25T02:58:33.701Z,14.95
2022-11-25T03:01:00.373Z,9.88
2022-11-25T03:03:27.358Z,16.48
2022-11-25T03:05:54.289Z,13.93
2022-11-25T03:08:21.034Z,19.08
2022-11-25T03:10:48.505Z,12.73
2022-11-25T03:13:18.010Z,11.18
2022-11-25T03:15:44.659Z,17.40
2022-11-25T03:18:12.190Z,11.15
2022-11-25T03:20:39.019Z,10.25
2022-11-25T03:23:06.278Z,11.60
2022-11-25T03:25:34.563Z,10.88
2022-11-25T03:28:01.525Z,12.93
2022-11-25T03:30:30.840Z,7.35
2022-11-25T03:32:59.435Z,8.98
2022-11-25T03:35:27.357Z,12.88
2022-11-25T03:37:53.888Z,14.65
2022-11-25T03:40:20.671Z,13.77
2022-11-25T03:42:47.853Z,12.63
2022-11-25T03:45:16.179Z,9.70
2022-11-25T03:47:46.472Z,13.27
2022-11-25T03:50:14.640Z,13.95
2022-11-25T03:52:41.437Z,11.13
2022-11-25T03:55:10.469Z,12.43
2022-11-25T03:57:37.493Z,16.65
2022-11-25T04:00:07.567Z,8.15
2022-11-25T04:02:45.885Z,9.75
2022-11-25T04:05:14.428Z,13.32
2022-11-25T04:07:41.029Z,11.52
2022-11-25T04:10:09.493Z,9.40
2022-11-25T04:12:36.168Z,5.70
2022-11-25T04:15:08.521Z,12.48
2022-11-25T04:17:36.439Z,9.10
2022-11-25T04:20:05.589Z,8.95
2022-11-25T04:22:32.308Z,11.57
2022-11-25T04:25:00.770Z,12.02
2022-11-25T04:27:28.662Z,10.60
2022-11-25T04:29:55.314Z,8.95
2022-11-25T04:32:22.463Z,13.13
2022-11-25T04:34:49.397Z,9.23
2022-11-25T04:37:17.417Z,10.45
2022-11-25T04:39:44.066Z,12.80
2022-11-25T04:42:17.168Z,10.95
2022-11-25T04:44:55.914Z,16.00
2022-11-25T04:47:31.489Z,10.07
2022-11-25T04:49:58.313Z,11.80
2022-11-25T04:52:26.984Z,6.07
2022-11-25T04:54:53.857Z,7.32
2022-11-25T04:57:20.873Z,9.45
2022-11-25T04:59:48.233Z,7.70
2022-11-25T05:02:17.010Z,11.60
2022-11-25T05:04:55.027Z,5.85
2022-11-25T05:07:24.944Z,7.70
2022-11-25T05:09:55.163Z,6.07
2022-11-25T05:12:44.081Z,8.20
2022-11-25T05:15:15.476Z,10.63
2022-11-25T05:17:45.139Z,10.73
2022-11-25T05:20:13.329Z,9.80
2022-11-25T05:22:40.080Z,10.50
2022-11-25T05:25:13.976Z,7.82
2022-11-25T05:27:50.624Z,11.82
2022-11-25T05:30:17.469Z,9.93
2022-11-25T05:32:44.006Z,10.02
2022-11-25T05:35:10.907Z,13.52
2022-11-25T05:37:39.671Z,8.02
2022-11-25T05:40:07.990Z,13.13
2022-11-25T05:43:00.381Z,10.30
2022-11-25T05:45:28.736Z,9.63
2022-11-25T05:47:55.963Z,8.13
2022-11-25T05:50:25.701Z,14.40
2022-11-25T05:53:13.077Z,10.07
2022-11-25T05:55:41.007Z,10.80
2022-11-25T05:58:17.404Z,8.82
2022-11-25T06:00:50.137Z,6.25
2022-11-25T06:03:17.291Z,7.75
2022-11-25T06:05:44.437Z,6.03
2022-11-25T06:08:11.621Z,11.90
2022-11-25T06:10:38.910Z,8.10
2022-11-25T06:13:05.469Z,7.43
2022-11-25T06:15:33.471Z,12.55
2022-11-25T06:18:00.396Z,10.90
2022-11-25T06:20:29.010Z,10.85
2022-11-25T06:22:57.240Z,11.05
2022-11-25T06:25:30.091Z,5.82
2022-11-25T06:28:12.447Z,9.60
2022-11-25T06:30:45.019Z,13.55
2022-11-25T06:33:18.347Z,8.35
2022-11-25T06:35:46.764Z,6.03
2022-11-25T06:38:13.357Z,8.68
2022-11-25T06:40:39.997Z,11.82
2022-11-25T06:43:06.504Z,14.18
2022-11-25T06:45:33.080Z,11.45
2022-11-25T06:48:01.002Z,11.90
2022-11-25T06:50:27.877Z,11.82
2022-11-25T06:52:54.393Z,7.13
2022-11-25T06:55:21.094Z,8.50
2022-11-25T06:57:47.610Z,7.60
2022-11-25T07:00:14.959Z,9.30
2022-11-25T07:02:46.615Z,8.30
2022-11-25T07:05:16.692Z,7.15
2022-11-25T07:07:43.263Z,10.85
2022-11-25T07:10:10.438Z,7.68
2022-11-25T07:12:36.967Z,6.90
2022-11-25T07:15:04.206Z,9.57
2022-11-25T07:17:30.727Z,11.60
2022-11-25T07:19:57.284Z,10.75
2022-11-25T07:22:25.170Z,6.40
2022-11-25T07:24:51.760Z,11.52
2022-11-25T07:27:18.309Z,6.13
2022-11-25T07:29:58.241Z,5.88
2022-11-25T07:32:33.209Z,8.15
2022-11-25T07:34:59.724Z,7.07
2022-11-25T07:37:27.589Z,11.50
2022-11-25T07:39:54.135Z,7.82
2022-11-25T07:42:20.653Z,8.15
2022-11-25T07:44:48.278Z,9.93
2022-11-25T07:47:37.525Z,9.90
2022-11-25T07:50:04.748Z,8.82
2022-11-25T07:52:32.624Z,9.13
2022-11-25T07:54:59.220Z,7.57
2022-11-25T07:57:25.701Z,12.23
2022-11-25T07:59:52.251Z,9.90
2022-11-25T08:02:18.856Z,12.13
2022-11-25T08:04:45.473Z,14.38
2022-11-25T08:07:12.014Z,14.05
2022-11-25T08:09:40.172Z,10.95
2022-11-25T08:12:06.752Z,86.72
2022-11-25T08:14:33.423Z,23.45
2022-11-25T08:16:59.916Z,18.35
2022-11-25T08:19:31.313Z,6.90
2022-11-25T08:21:58.265Z,8.88
2022-11-25T08:24:24.823Z,11.48
2022-11-25T08:26:52.763Z,6.68
2022-11-25T08:29:19.541Z,7.60
2022-11-25T08:31:46.695Z,8.18
2022-11-25T08:34:18.599Z,7.18
2022-11-25T08:36:48.536Z,4.20
2022-11-25T08:39:50.630Z,5.20
2022-11-25T08:42:05.094Z,8.43
2022-11-25T08:44:31.833Z,9.98
2022-11-25T08:46:58.445Z,5.90
2022-11-25T08:49:25.062Z,7.20
2022-11-25T08:51:51.559Z,6.93
2022-11-25T08:54:18.099Z,7.95
2022-11-25T08:56:44.666Z,5.75
2022-11-25T08:59:12.530Z,9.50
2022-11-25T09:01:39.113Z,8.70
2022-11-25T09:04:05.853Z,9.52
2022-11-25T09:06:32.369Z,6.35
2022-11-25T09:09:00.148Z,9.50
2022-11-25T09:11:28.022Z,9.57
2022-11-25T09:13:54.662Z,8.23
2022-11-25T09:16:22.908Z,8.40
2022-11-25T09:18:54.212Z,9.02
2022-11-25T09:21:23.289Z,10.45
2022-11-25T09:23:50.077Z,9.48
2022-11-25T09:26:20.941Z,6.85
2022-11-25T09:28:47.440Z,9.73
2022-11-25T09:31:14.074Z,9.48
2022-11-25T09:33:42.183Z,8.02
2022-11-25T09:36:09.489Z,10.38
2022-11-25T09:38:40.244Z,9.88
2022-11-25T09:41:27.745Z,8.57
2022-11-25T09:44:06.029Z,7.97
2022-11-25T09:46:49.500Z,6.80
2022-11-25T09:49:46.561Z,6.57
2022-11-25T09:52:21.853Z,10.05
2022-11-25T09:54:55.358Z,7.28
2022-11-25T09:57:26.790Z,5.95
2022-11-25T10:00:05.259Z,9.23
2022-11-25T10:02:44.566Z,6.32
2022-11-25T10:07:46.716Z,7.30
2022-11-25T10:10:19.317Z,6.53
2022-11-25T10:12:48.762Z,6.50
2022-11-25T10:15:20.025Z,8.63
2022-11-25T10:17:49.044Z,7.15
2022-11-25T10:20:22.387Z,8.18
2022-11-25T10:22:51.837Z,10.40
2022-11-25T10:25:20.426Z,5.80
2022-11-25T10:27:52.721Z,9.18
2022-11-25T10:30:21.897Z,8.98
2022-11-25T10:32:54.626Z,9.80
2022-11-25T10:35:30.887Z,8.38
2022-11-25T10:38:01.604Z,6.47
2022-11-25T10:40:28.365Z,6.72
2022-11-25T10:42:54.886Z,7.40
2022-11-25T10:45:28.554Z,8.35
2022-11-25T10:48:07.791Z,8.88
2022-11-25T10:50:42.332Z,7.50
2022-11-25T10:53:13.112Z,7.05
2022-11-25T10:55:39.731Z,6.60
2022-11-25T10:58:25.836Z,7.55
2022-11-25T11:01:02.731Z,5.57
2022-11-25T11:03:29.423Z,7.15
2022-11-25T11:05:57.329Z,5.45
2022-11-25T11:08:26.698Z,6.53
2022-11-25T11:11:14.317Z,5.10
2022-11-25T11:13:41.454Z,10.10
2022-11-25T11:16:25.551Z,6.82
2022-11-25T11:18:52.725Z,7.22
2022-11-25T11:21:29.058Z,8.15
2022-11-25T11:23:56.213Z,6.53
2022-11-25T11:26:25.665Z,5.35
2022-11-25T11:29:01.231Z,9.90
2022-11-25T11:31:33.299Z,12.50
2022-11-25T11:34:11.570Z,9.52
2022-11-25T11:36:54.026Z,11.40
2022-11-25T11:39:40.392Z,10.98
2022-11-25T11:42:13.903Z,9.60
2022-11-25T11:44:57.541Z,12.98
2022-11-25T11:47:36.955Z,10.65
2022-11-25T11:50:22.595Z,8.13
2022-11-25T11:52:57.455Z,9.88
2022-11-25T11:55:38.752Z,8.48
2022-11-25T11:58:15.863Z,7.03
2022-11-25T12:00:50.953Z,9.85
2022-11-25T12:03:21.743Z,11.27
2022-11-25T12:05:49.544Z,11.27
2022-11-25T12:08:26.745Z,6.43
2022-11-25T12:10:56.257Z,13.30
2022-11-25T12:13:31.108Z,8.10
2022-11-25T12:16:04.166Z,7.50
2022-11-25T12:18:44.757Z,9.65
2022-11-25T12:21:22.192Z,7.80
2022-11-25T12:23:58.286Z,11.85
2022-11-25T12:26:30.932Z,12.43
2022-11-25T12:29:02.482Z,9.57
2022-11-25T12:31:36.943Z,9.85
2022-11-25T12:34:11.711Z,8.60
2022-11-25T12:36:40.623Z,8.90
2022-11-25T12:39:18.726Z,9.35
2022-11-25T12:41:50.979Z,8.30
2022-11-25T12:44:22.302Z,6.00
2022-11-25T12:46:50.492Z,12.88
2022-11-25T12:49:20.311Z,8.75
2022-11-25T12:52:11.005Z,12.10
2022-11-25T12:55:04.293Z,12.00
2022-11-25T12:57:58.824Z,10.57
2022-11-25T13:00:47.283Z,15.77
2022-11-25T13:03:37.787Z,8.25
2022-11-25T13:06:23.627Z,12.30
2022-11-25T13:08:56.812Z,14.32
2022-11-25T13:11:56.675Z,10.85
2022-11-25T13:14:28.719Z,12.15
2022-11-25T13:16:57.401Z,9.48
2022-11-25T13:19:24.470Z,8.75
2022-11-25T13:21:59.403Z,12.13
2022-11-25T13:24:31.563Z,10.05
2022-11-25T13:27:00.458Z,10.80
2022-11-25T13:30:01.247Z,10.85
2022-11-25T13:32:39.943Z,10.75
2022-11-25T13:35:49.248Z,16.05
2022-11-25T13:38:57.389Z,12.48
2022-11-25T13:41:36.490Z,9.50
2022-11-25T13:44:17.955Z,7.45
2022-11-25T13:46:47.573Z,9.43
2022-11-25T13:49:31.979Z,5.28
2022-11-25T13:52:01.995Z,11.65
2022-11-25T13:54:36.604Z,11.93
2022-11-25T13:57:19.644Z,11.15
2022-11-25T13:59:56.036Z,7.20
2022-11-25T14:02:43.155Z,12.60
2022-11-25T14:05:34.182Z,8.48
2022-11-25T14:08:11.677Z,12.07
2022-11-25T14:10:45.276Z,7.72
2022-11-25T14:13:28.016Z,9.25
2022-11-25T14:16:11.745Z,12.20
2022-11-25T14:21:55.184Z,7.00
2022-11-25T14:24:31.028Z,10.15
2022-11-25T14:26:59.873Z,5.88
2022-11-25T14:29:32.430Z,14.07
2022-11-25T14:32:07.326Z,8.38
2022-11-25T14:34:38.992Z,7.60
2022-11-25T14:37:13.162Z,12.77
2022-11-25T14:39:43.747Z,8.05
2022-11-25T14:42:13.417Z,11.13
2022-11-25T14:44:47.879Z,6.28
2022-11-25T14:47:21.683Z,9.32
2022-11-25T14:50:00.113Z,11.38
2022-11-25T14:52:36.952Z,9.57
2022-11-25T14:55:06.132Z,8.80
2022-11-25T14:57:35.727Z,11.57
2022-11-25T15:00:06.753Z,8.32
2022-11-25T15:02:37.065Z,8.07
2022-11-25T15:05:16.397Z,7.68
2022-11-25T15:07:57.139Z,11.52
2022-11-25T15:10:32.621Z,9.27
2022-11-25T15:13:00.465Z,10.48
2022-11-25T15:15:27.589Z,11.70
2022-11-25T15:17:55.557Z,10.32
2022-11-25T15:20:25.516Z,6.93
2022-11-25T15:22:52.977Z,5.03
2022-11-25T15:25:19.618Z,4.32
2022-11-25T15:27:49.183Z,7.13
2022-11-25T15:30:20.807Z,5.30
2022-11-25T15:32:48.590Z,6.22
2022-11-25T15:35:19.838Z,9.48
2022-11-25T15:37:46.707Z,9.43
2022-11-25T15:40:34.356Z,8.50
2022-11-25T15:43:04.121Z,8.50
2022-11-25T15:45:37.313Z,10.35
2022-11-25T15:48:04.641Z,11.18
2022-11-25T15:50:33.202Z,7.32
2022-11-25T15:53:00.669Z,9.98
2022-11-25T15:55:31.412Z,4.43
2022-11-25T15:58:04.675Z,13.95
2022-11-25T16:00:31.483Z,12.18
2022-11-25T16:02:58.227Z,12.90
2022-11-25T16:05:37.352Z,12.15
2022-11-25T16:08:27.565Z,14.15
2022-11-25T16:10:58.799Z,14.13
2022-11-25T16:13:35.604Z,22.52
2022-11-25T16:16:28.114Z,9.27
2022-11-25T16:19:12.464Z,13.00
2022-11-25T16:22:05.921Z,16.25
2022-11-25T16:24:40.209Z,7.70
2022-11-25T16:27:16.403Z,10.63
2022-11-25T16:29:49.437Z,9.75
2022-11-25T16:32:18.237Z,10.65
2022-11-25T16:34:45.527Z,11.25
2022-11-25T16:37:13.560Z,12.23
2022-11-25T16:39:40.349Z,8.93
2022-11-25T16:42:07.684Z,10.23
2022-11-25T16:44:36.164Z,11.88
2022-11-25T16:47:02.988Z,10.85
2022-11-25T16:49:30.668Z,15.02
2022-11-25T16:51:57.515Z,7.25
2022-11-25T16:54:25.509Z,13.63
2022-11-25T16:56:54.410Z,12.23
2022-11-25T16:59:27.968Z,10.93
2022-11-25T17:01:54.848Z,11.27
2022-11-25T17:04:21.991Z,9.52
2022-11-25T17:07:16.344Z,9.90
2022-11-25T17:09:36.834Z,13.55
2022-11-25T17:12:05.809Z,27.75
2022-11-25T17:14:34.541Z,29.63
2022-11-25T17:17:03.405Z,28.38
2022-11-25T17:19:30.411Z,36.10
2022-11-25T17:21:57.012Z,39.30
2022-11-25T17:24:24.905Z,34.25
2022-11-25T17:26:55.803Z,37.83
2022-11-25T17:29:27.809Z,40.37
2022-11-25T17:31:58.386Z,34.45
2022-11-25T17:34:25.455Z,57.07
2022-11-25T17:36:52.135Z,42.40
2022-11-25T17:39:18.760Z,39.83
2022-11-25T17:41:47.442Z,44.63
2022-11-25T17:44:23.784Z,37.47
2022-11-25T17:46:50.636Z,19.20
2022-11-25T17:49:17.399Z,13.10
2022-11-25T17:51:44.037Z,11.82
2022-11-25T17:54:11.375Z,7.63
2022-11-25T17:56:39.406Z,12.60
2022-11-25T17:59:11.695Z,14.15
2022-11-25T18:01:40.029Z,17.10
2022-11-25T18:04:16.346Z,15.15
2022-11-25T18:06:43.197Z,21.17
2022-11-25T18:09:10.030Z,15.60
2022-11-25T18:11:41.308Z,13.63
2022-11-25T18:14:13.945Z,11.70
2022-11-25T18:16:42.456Z,10.18
2022-11-25T18:19:11.551Z,14.43
2022-11-25T18:21:38.538Z,15.75
2022-11-25T18:24:05.905Z,16.63
2022-11-25T18:26:32.826Z,15.43
2022-11-25T18:29:01.191Z,21.70
2022-11-25T18:31:28.431Z,27.10
2022-11-25T18:33:56.313Z,14.30
2022-11-25T18:36:22.934Z,16.42
2022-11-25T18:38:49.478Z,12.45
2022-11-25T18:41:20.998Z,13.93
2022-11-25T18:43:47.650Z,16.90
2022-11-25T18:46:14.716Z,14.43
2022-11-25T18:48:41.447Z,12.55
2022-11-25T18:51:11.689Z,16.15
2022-11-25T18:53:38.302Z,15.25
2022-11-25T18:56:05.135Z,15.80
2022-11-25T18:58:31.705Z,13.57
2022-11-25T19:01:02.561Z,17.88
2022-11-25T19:03:29.250Z,14.13
2022-11-25T19:05:56.003Z,20.75
2022-11-25T19:08:24.013Z,19.08
2022-11-25T19:10:51.281Z,21.75
2022-11-25T19:13:21.588Z,17.50
2022-11-25T19:15:48.410Z,19.52
2022-11-25T19:18:23.905Z,19.42
2022-11-25T19:20:50.581Z,18.73
2022-11-25T19:23:18.526Z,18.42
2022-11-25T19:25:46.923Z,14.82
2022-11-25T19:28:14.835Z,13.50
2022-11-25T19:30:42.012Z,11.48
2022-11-25T19:33:14.122Z,9.90
2022-11-25T19:35:40.905Z,13.23
2022-11-25T19:38:13.349Z,12.77
2022-11-25T19:40:39.945Z,19.35
2022-11-25T19:43:07.887Z,8.80
2022-11-25T19:45:34.932Z,13.93
2022-11-25T19:48:05.937Z,17.48
2022-11-25T19:50:34.799Z,14.77
2022-11-25T19:53:01.330Z,12.82
2022-11-25T19:55:28.223Z,14.90
2022-11-25T19:57:55.083Z,14.27
2022-11-25T20:00:24.110Z,17.10
2022-11-25T20:02:52.761Z,17.70
2022-11-25T20:05:22.603Z,23.73
2022-11-25T20:07:49.161Z,18.50
2022-11-25T20:10:18.589Z,18.90
2022-11-25T20:12:45.269Z,23.13
2022-11-25T20:15:12.450Z,17.90
2022-11-25T20:17:42.937Z,14.43
2022-11-25T20:20:15.162Z,19.20
2022-11-25T20:22:48.130Z,20.17
2022-11-25T20:25:14.962Z,15.02
2022-11-25T20:27:41.769Z,17.20
2022-11-25T20:30:15.524Z,18.00
2022-11-25T20:32:43.477Z,14.85
2022-11-25T20:35:10.127Z,12.02
2022-11-25T20:37:38.159Z,17.35
2022-11-25T20:40:13.297Z,12.65
2022-11-25T20:42:40.118Z,16.55
2022-11-25T20:45:13.683Z,10.93
2022-11-25T20:47:40.402Z,10.77
2022-11-25T20:50:11.843Z,14.23
2022-11-25T20:52:38.488Z,11.60
2022-11-25T20:55:14.386Z,14.32
2022-11-25T20:57:41.013Z,11.40
2022-11-25T21:00:14.486Z,14.20
2022-11-25T21:02:41.060Z,14.73
2022-11-25T21:05:09.134Z,13.30
2022-11-25T21:07:35.880Z,9.77
2022-11-25T21:10:02.516Z,13.50
2022-11-25T21:12:29.101Z,12.98
2022-11-25T21:14:55.623Z,9.57
2022-11-25T21:17:22.181Z,14.88
2022-11-25T21:19:48.668Z,32.35
2022-11-25T21:22:16.632Z,75.45
2022-11-25T21:24:43.550Z,123.93
2022-11-25T21:27:14.431Z,62.67
2022-11-25T21:29:42.813Z,49.95
2022-11-25T21:32:20.185Z,28.92
2022-11-25T21:34:47.018Z,32.28
2022-11-25T21:37:13.703Z,39.53
2022-11-25T21:39:42.120Z,29.98
2022-11-25T21:42:18.318Z,40.38
2022-11-25T21:44:45.763Z,25.95
2022-11-25T21:47:13.449Z,26.67
2022-11-25T21:49:40.107Z,47.38
2022-11-25T21:52:06.612Z,38.97
2022-11-25T21:54:33.295Z,40.33
2022-11-25T21:57:01.207Z,40.88
2022-11-25T21:59:29.847Z,40.17
2022-11-25T22:01:56.683Z,36.17
2022-11-25T22:04:24.400Z,34.80
2022-11-25T22:06:51.051Z,33.40
2022-11-25T22:09:17.745Z,39.85
2022-11-25T22:11:47.140Z,37.38
2022-11-25T22:14:24.121Z,34.90
2022-11-25T22:16:51.676Z,34.67
2022-11-25T22:19:20.769Z,36.05
2022-11-25T22:21:47.469Z,33.70
2022-11-25T22:24:15.125Z,28.33
2022-11-25T22:26:42.802Z,29.30
2022-11-25T22:29:13.735Z,26.92
2022-11-25T22:31:42.437Z,21.73
2022-11-25T22:34:16.502Z,26.15
2022-11-25T22:36:43.647Z,23.45
2022-11-25T22:39:14.158Z,22.40
2022-11-25T22:41:42.101Z,21.67
2022-11-25T22:44:17.440Z,27.23
2022-11-25T22:46:46.338Z,21.42
2022-11-25T22:49:27.369Z,26.95
2022-11-25T22:51:54.225Z,20.67
2022-11-25T22:54:21.641Z,22.30
2022-11-25T22:56:48.229Z,22.02
2022-11-25T22:59:14.735Z,26.98
2022-11-25T23:01:41.496Z,18.17
2022-11-25T23:04:15.507Z,24.33
2022-11-25T23:06:42.085Z,19.95
2022-11-25T23:09:13.960Z,22.75
2022-11-25T23:14:07.148Z,16.92
2022-11-25T23:16:33.741Z,13.60
2022-11-25T23:19:00.324Z,13.25
2022-11-25T23:21:28.263Z,9.88
2022-11-25T23:23:55.305Z,8.80
2022-11-25T23:26:22.686Z,7.30
2022-11-25T23:28:49.457Z,9.45
2022-11-25T23:31:16.743Z,9.43
2022-11-25T23:33:46.343Z,9.82
2022-11-25T23:36:15.640Z,10.18
2022-11-25T23:38:46.131Z,9.38
2022-11-25T23:41:14.790Z,12.02
2022-11-25T23:43:41.289Z,11.02
2022-11-25T23:46:12.755Z,10.90
2022-11-25T23:48:40.925Z,11.38
2022-11-25T23:51:08.564Z,9.73
2022-11-25T23:53:39.087Z,7.32
2022-11-25T23:56:07.882Z,8.18
2022-11-25T23:58:34.536Z,9.50
